Terminal Aerodrome Forecast
Issued by NWS Lake Charles, LA

Current Version | Previous Version | Text Only | Print | Product List | Glossary On
Versions: 1 2 3 4 5 6 7 8 9 10 11 12 13 14 15 16 17 18 19 20 21 22 23 24 25 26 27
000
FTUS44 KLCH 231131
TAFAEX
TAF
KAEX 231131Z 2312/2412 VRB04KT P6SM SCT025 SCT250
     FM231500 12008KT P6SM SCT035 BKN200
     FM231800 14008KT P6SM VCTS BKN050CB
      TEMPO 2320/2324 VRB10G20KT 3SM -TSRA SCT025 BKN035CB
     FM240200 13007KT P6SM SCT035 BKN200
     FM240900 14006KT P6SM BKN025=

USA.gov is the U.S. government's official web portal to all federal, state and local government web resources and services.